Time;durP1;ratioP1;P1;durP2;ratioP2;P2;SDS_P1;SDS_P2;PMS_P1;PMS_P2;Temp;Humidity;BMP_temperature;BMP_pressure;BME280_temperature;BME280_humidity;BME280_pressure;Samples;Min_cycle;Max_cycle;Signal;HPM_P1;HPM_P2
2024/03/08 00:00:17;;;;;;;18.80;9.70;;;;;;;0.53;69.81;99793.05;105641;1256;109800;-75
2024/03/08 00:03:06;;;;;;;23.70;11.10;;;;;;;0.46;69.68;99793.89;105401;1257;96654;-75
2024/03/08 00:05:34;;;;;;;20.40;11.10;;;;;;;0.39;69.62;99790.34;105582;1254;107278;-75
2024/03/08 00:08:02;;;;;;;26.60;11.30;;;;;;;0.32;69.63;99788.92;105522;1257;96688;-75
2024/03/08 00:10:30;;;;;;;22.90;11.80;;;;;;;0.26;69.68;99790.59;105709;1256;96603;-75
2024/03/08 00:12:58;;;;;;;19.40;9.50;;;;;;;0.22;69.96;99786.14;105423;1264;109881;-75
2024/03/08 00:15:26;;;;;;;18.30;9.70;;;;;;;0.16;69.79;99786.42;105638;1264;96526;-75
2024/03/08 00:17:54;;;;;;;20.70;10.60;;;;;;;0.09;69.78;99790.89;105213;1266;107718;-75
2024/03/08 00:20:23;;;;;;;23.50;11.20;;;;;;;0.02;69.66;99792.07;105537;1256;96548;-75
2024/03/08 00:22:51;;;;;;;24.00;11.50;;;;;;;-0.06;69.64;99792.05;105696;1266;96682;-77
2024/03/08 00:25:19;;;;;;;23.50;11.30;;;;;;;-0.13;69.58;99789.20;105357;1266;109301;-75
2024/03/08 00:27:49;;;;;;;17.70;10.20;;;;;;;-0.19;69.66;99793.13;105199;1266;97438;-75
2024/03/08 00:30:18;;;;;;;19.40;10.70;;;;;;;-0.23;69.65;99790.42;105468;1256;107680;-75
2024/03/08 00:36:52;;;;;;;22.00;9.70;;;;;;;-0.35;69.62;99787.99;105341;1257;96564;-75
2024/03/08 00:39:21;;;;;;;26.90;11.00;;;;;;;-0.41;69.75;99785.48;105214;1257;109578;-75
2024/03/08 00:41:48;;;;;;;22.10;11.60;;;;;;;-0.47;69.71;99782.09;105216;1270;97513;-76
2024/03/08 00:44:16;;;;;;;23.90;11.20;;;;;;;-0.52;69.65;99783.91;105493;1264;105507;-75
2024/03/08 00:46:44;;;;;;;23.40;12.10;;;;;;;-0.58;69.54;99786.61;105456;1257;96717;-76
2024/03/08 00:49:12;;;;;;;20.80;10.80;;;;;;;-0.64;69.69;99781.83;105572;1255;96606;-75
2024/03/08 00:51:40;;;;;;;26.90;11.80;;;;;;;-0.67;69.60;99782.93;105356;1256;110144;-75
2024/03/08 00:54:08;;;;;;;21.80;11.20;;;;;;;-0.72;69.74;99782.30;105245;1258;96679;-75
2024/03/08 00:56:37;;;;;;;21.00;10.40;;;;;;;-0.75;69.63;99782.86;105612;1266;107585;-75
2024/03/08 00:59:06;;;;;;;22.40;11.40;;;;;;;-0.78;69.58;99777.67;105706;1266;96715;-75
2024/03/08 01:01:34;;;;;;;18.00;10.00;;;;;;;-0.79;69.90;99776.82;105872;1254;97927;-75
2024/03/08 01:04:02;;;;;;;21.30;10.40;;;;;;;-0.79;69.77;99777.68;105260;1257;110428;-74
2024/03/08 01:06:30;;;;;;;23.00;10.30;;;;;;;-0.81;69.56;99779.11;105449;1257;96591;-75
2024/03/08 01:08:58;;;;;;;22.60;11.60;;;;;;;-0.85;69.70;99776.05;105564;1258;106604;-75
2024/03/08 01:11:27;;;;;;;24.00;11.30;;;;;;;-0.88;69.89;99776.27;105422;1256;97463;-75
2024/03/08 01:13:56;;;;;;;21.70;10.60;;;;;;;-0.90;69.79;99778.55;105289;1254;97376;-75
2024/03/08 01:16:23;;;;;;;25.60;10.70;;;;;;;-0.91;69.73;99777.70;105484;1256;110102;-76
2024/03/08 01:18:51;;;;;;;22.60;11.00;;;;;;;-0.92;69.97;99773.36;105493;1256;96711;-75
2024/03/08 01:21:19;;;;;;;26.90;12.30;;;;;;;-0.93;69.87;99769.89;105725;1255;108957;-77
2024/03/08 01:23:47;;;;;;;20.80;10.70;;;;;;;-0.96;69.78;99768.70;105400;1256;96612;-75
2024/03/08 01:26:16;;;;;;;25.20;11.60;;;;;;;-0.98;69.86;99764.55;105427;1254;96597;-76
2024/03/08 01:28:44;;;;;;;20.50;9.80;;;;;;;-0.96;69.74;99766.80;105230;1267;108857;-75
2024/03/08 01:31:12;;;;;;;23.30;11.20;;;;;;;-0.95;69.96;99763.30;105390;1257;96610;-76
2024/03/08 01:33:40;;;;;;;20.90;10.30;;;;;;;-0.96;69.78;99760.52;105201;1265;106236;-76
2024/03/08 01:36:08;;;;;;;21.70;10.40;;;;;;;-0.97;69.89;99765.60;105369;1265;96596;-75
2024/03/08 01:38:36;;;;;;;24.50;10.10;;;;;;;-1.02;69.96;99761.14;105623;1257;96526;-75
2024/03/08 01:41:04;;;;;;;25.00;11.90;;;;;;;-1.06;69.85;99760.49;105494;1257;108170;-75
2024/03/08 01:43:32;;;;;;;23.30;11.20;;;;;;;-1.12;69.94;99756.74;105428;1259;96853;-76
2024/03/08 01:46:01;;;;;;;20.90;11.10;;;;;;;-1.14;69.73;99756.77;105508;1260;107614;-74
2024/03/08 01:48:30;;;;;;;24.50;11.20;;;;;;;-1.16;70.06;99759.93;105599;1256;97924;-75
2024/03/08 01:50:58;;;;;;;19.20;10.30;;;;;;;-1.17;69.86;99757.52;105822;1257;96926;-75
2024/03/08 01:53:28;;;;;;;25.20;10.90;;;;;;;-1.16;70.13;99755.92;105480;1257;109223;-75
2024/03/08 01:55:58;;;;;;;21.50;10.20;;;;;;;-1.15;70.01;99753.83;105602;1261;96908;-75
2024/03/08 01:58:28;;;;;;;21.70;10.40;;;;;;;-1.17;70.32;99753.52;105427;1260;106788;-75
2024/03/08 02:01:00;;;;;;;23.40;11.00;;;;;;;-1.20;70.17;99751.97;105521;1260;96610;-75
2024/03/08 02:03:28;;;;;;;22.50;10.50;;;;;;;-1.25;70.03;99749.62;105349;1253;97338;-75
2024/03/08 02:05:55;;;;;;;20.10;10.20;;;;;;;-1.28;70.20;99747.57;105592;1257;109942;-75
2024/03/08 02:08:23;;;;;;;22.30;10.40;;;;;;;-1.29;70.20;99747.05;105325;1256;97398;-75
2024/03/08 02:10:52;;;;;;;23.10;10.70;;;;;;;-1.31;70.02;99744.13;105658;1266;108367;-76
2024/03/08 02:13:19;;;;;;;26.00;11.50;;;;;;;-1.35;70.02;99746.60;105672;1266;97565;-76
2024/03/08 02:15:55;;;;;;;23.80;10.60;;;;;;;-1.38;70.17;99742.30;105502;1254;96549;-76
2024/03/08 02:18:23;;;;;;;22.60;10.70;;;;;;;-1.37;70.40;99742.29;105550;1260;109933;-76
2024/03/08 02:20:52;;;;;;;24.10;11.60;;;;;;;-1.35;70.27;99740.52;105601;1256;97522;-75
2024/03/08 02:23:21;;;;;;;27.20;11.30;;;;;;;-1.34;70.31;99741.54;105500;1254;106743;-75
2024/03/08 02:25:49;;;;;;;24.30;11.50;;;;;;;-1.35;70.14;99735.98;105245;1255;96623;-75
2024/03/08 02:28:20;;;;;;;26.40;11.90;;;;;;;-1.37;70.11;99737.05;105473;1265;97927;-75
2024/03/08 02:30:58;;;;;;;23.60;10.90;;;;;;;-1.39;70.28;99735.17;105760;1254;111367;-76
2024/03/08 02:33:27;;;;;;;22.50;10.40;;;;;;;-1.39;70.24;99734.13;106466;1254;96587;-75
2024/03/08 02:35:56;;;;;;;21.90;11.00;;;;;;;-1.40;70.42;99735.17;105419;1254;108345;-75
2024/03/08 02:38:24;;;;;;;19.60;9.70;;;;;;;-1.44;70.11;99729.33;106880;1257;96682;-74
2024/03/08 02:40:54;;;;;;;19.90;10.60;;;;;;;-1.46;70.40;99734.92;107653;1256;96628;-76
2024/03/08 02:43:24;;;;;;;20.90;10.50;;;;;;;-1.44;70.45;99734.89;105772;1253;109992;-75
2024/03/08 02:45:53;;;;;;;24.30;11.30;;;;;;;-1.41;70.41;99736.41;105674;1257;97830;-75
2024/03/08 02:48:22;;;;;;;23.20;10.60;;;;;;;-1.43;70.37;99735.23;105335;1265;107840;-75
2024/03/08 02:50:51;;;;;;;21.20;11.00;;;;;;;-1.43;70.51;99734.71;105466;1254;96600;-76
2024/03/08 02:53:19;;;;;;;18.90;10.10;;;;;;;-1.44;70.40;99734.38;105550;1254;96504;-75
2024/03/08 02:55:47;;;;;;;20.20;10.30;;;;;;;-1.49;70.12;99734.08;105607;1256;109541;-75
2024/03/08 02:58:15;;;;;;;22.50;10.90;;;;;;;-1.54;70.21;99737.45;105388;1257;96721;-74
2024/03/08 03:00:43;;;;;;;21.80;10.10;;;;;;;-1.56;70.49;99735.05;105342;1257;107701;-76
2024/03/08 03:03:11;;;;;;;20.40;9.80;;;;;;;-1.58;70.64;99733.49;105440;1257;96593;-75
2024/03/08 03:05:41;;;;;;;24.20;10.80;;;;;;;-1.58;70.54;99736.10;105482;1256;96826;-75
2024/03/08 03:08:16;;;;;;;17.60;9.90;;;;;;;-1.58;70.43;99737.49;105441;1258;109898;-74
2024/03/08 03:10:45;;;;;;;26.20;10.90;;;;;;;-1.61;70.52;99738.40;105429;1260;96600;-75
2024/03/08 03:13:14;;;;;;;23.20;10.50;;;;;;;-1.64;70.41;99737.58;105617;1258;107657;-75
2024/03/08 03:15:42;;;;;;;22.70;10.20;;;;;;;-1.64;70.62;99743.66;105651;1257;97816;-76
2024/03/08 03:18:10;;;;;;;20.10;10.00;;;;;;;-1.65;70.43;99744.71;105556;1257;97761;-74
2024/03/08 03:20:42;;;;;;;25.40;11.10;;;;;;;-1.62;70.51;99744.69;105567;1254;109845;-75
2024/03/08 03:23:14;;;;;;;23.80;10.90;;;;;;;-1.65;70.37;99746.11;105310;1257;96612;-75
2024/03/08 03:25:43;;;;;;;22.10;11.70;;;;;;;-1.69;70.54;99749.98;105158;1268;107659;-75
2024/03/08 03:28:14;;;;;;;20.90;10.60;;;;;;;-1.73;70.51;99751.59;105274;1257;96648;-75
2024/03/08 03:30:46;;;;;;;24.90;12.00;;;;;;;-1.77;70.61;99747.65;105412;1254;96572;-75
2024/03/08 03:33:16;;;;;;;21.70;10.50;;;;;;;-1.82;70.22;99746.30;105174;1258;109943;-75
2024/03/08 03:35:45;;;;;;;23.00;10.40;;;;;;;-1.84;70.88;99748.08;105608;1255;97391;-75
2024/03/08 03:38:14;;;;;;;22.30;10.70;;;;;;;-1.81;70.67;99747.15;105793;1254;107653;-75
2024/03/08 03:40:42;;;;;;;19.80;9.80;;;;;;;-1.75;70.72;99752.13;105548;1258;96750;-75
2024/03/08 03:43:10;;;;;;;22.50;10.50;;;;;;;-1.68;70.91;99753.10;105612;1254;96572;-75
2024/03/08 03:45:41;;;;;;;22.50;10.20;;;;;;;-1.65;71.04;99750.65;105660;1257;109916;-75
2024/03/08 03:48:10;;;;;;;24.40;10.90;;;;;;;-1.65;71.04;99747.33;105574;1255;97429;-76
2024/03/08 03:50:39;;;;;;;28.20;11.50;;;;;;;-1.65;70.60;99748.89;105671;1258;107704;-75
2024/03/08 03:53:08;;;;;;;20.90;9.80;;;;;;;-1.67;70.90;99748.91;105220;1257;96577;-76
2024/03/08 03:55:38;;;;;;;21.50;10.50;;;;;;;-1.65;70.83;99745.59;105230;1257;96520;-75
2024/03/08 03:58:11;;;;;;;26.60;11.60;;;;;;;-1.62;70.97;99745.02;105443;1257;109363;-76
2024/03/08 04:00:40;;;;;;;22.60;11.70;;;;;;;-1.63;70.47;99744.17;105400;1267;97513;-75
2024/03/08 04:03:08;;;;;;;20.50;10.10;;;;;;;-1.66;70.76;99741.95;105601;1258;108283;-75
2024/03/08 04:05:37;;;;;;;24.60;12.20;;;;;;;-1.67;70.70;99736.39;105437;1257;96633;-75
2024/03/08 04:08:06;;;;;;;23.30;12.10;;;;;;;-1.71;70.96;99736.61;105645;1254;96553;-75
2024/03/08 04:10:34;;;;;;;27.20;12.50;;;;;;;-1.73;70.97;99735.25;105753;1254;110141;-74
2024/03/08 04:13:02;;;;;;;25.70;11.60;;;;;;;-1.75;70.55;99734.58;105581;1257;96606;-75
2024/03/08 04:15:30;;;;;;;24.90;12.40;;;;;;;-1.77;70.54;99732.86;105501;1257;107630;-75
2024/03/08 04:18:00;;;;;;;24.90;12.00;;;;;;;-1.80;70.64;99732.19;105336;1255;96565;-75
2024/03/08 04:20:28;;;;;;;25.10;10.70;;;;;;;-1.80;70.91;99730.96;105565;1254;96641;-75
2024/03/08 04:22:56;;;;;;;23.20;10.70;;;;;;;-1.82;70.84;99729.41;105392;1254;109327;-77
2024/03/08 04:25:24;;;;;;;21.80;10.70;;;;;;;-1.81;70.96;99726.63;105488;1257;96600;-75
2024/03/08 04:27:52;;;;;;;25.00;10.30;;;;;;;-1.83;70.84;99723.52;105814;1253;107637;-75
2024/03/08 04:30:21;;;;;;;20.60;10.70;;;;;;;-1.86;70.75;99720.27;105618;1258;96506;-75
2024/03/08 04:32:49;;;;;;;22.00;10.70;;;;;;;-1.86;70.90;99723.05;105415;1253;96581;-75
2024/03/08 04:35:17;;;;;;;20.80;10.20;;;;;;;-1.83;70.99;99721.98;105430;1257;109481;-76
2024/03/08 04:37:45;;;;;;;21.50;11.10;;;;;;;-1.85;70.80;99723.55;105245;1257;97924;-75
2024/03/08 04:40:13;;;;;;;26.90;11.80;;;;;;;-1.89;70.75;99723.25;105327;1256;106230;-75
2024/03/08 04:42:42;;;;;;;24.10;10.30;;;;;;;-1.91;70.91;99723.98;105562;1267;97522;-75
2024/03/08 04:45:13;;;;;;;23.20;11.10;;;;;;;-1.92;71.11;99728.85;105499;1257;96579;-75
2024/03/08 04:47:41;;;;;;;19.90;10.10;;;;;;;-1.91;71.05;99732.66;105769;1254;109886;-76
2024/03/08 04:50:11;;;;;;;24.70;10.80;;;;;;;-1.92;71.08;99733.19;105730;1257;96609;-75
2024/03/08 04:52:39;;;;;;;20.60;10.20;;;;;;;-1.92;70.94;99733.73;105473;1257;108192;-75
2024/03/08 04:55:07;;;;;;;20.60;10.30;;;;;;;-1.92;71.22;99730.77;105842;1256;96609;-75
2024/03/08 04:57:35;;;;;;;31.70;12.50;;;;;;;-1.96;70.85;99728.71;105698;1256;96685;-79
2024/03/08 05:00:10;;;;;;;25.00;11.90;;;;;;;-2.01;70.86;99727.73;105557;1253;109551;-77
2024/03/08 05:02:38;;;;;;;28.40;13.60;;;;;;;-2.03;71.09;99731.92;105524;1267;96587;-72
2024/03/08 05:06:05;;;;;;;25.90;10.60;;;;;;;-2.02;70.72;99732.27;105590;1257;107628;-77
2024/03/08 05:08:37;;;;;;;26.60;11.30;;;;;;;-2.08;70.69;99732.33;104890;1266;96608;-70
2024/03/08 05:11:06;;;;;;;23.10;11.20;;;;;;;-2.13;71.02;99732.38;105525;1257;97985;-71
2024/03/08 05:13:35;;;;;;;24.90;11.40;;;;;;;-2.11;71.21;99732.54;105747;1254;109910;-71
2024/03/08 05:16:03;;;;;;;24.80;11.60;;;;;;;-2.09;71.24;99735.12;108529;1253;95489;-71
2024/03/08 05:18:32;;;;;;;21.60;10.60;;;;;;;-2.12;70.93;99738.27;108703;1252;107842;-71
2024/03/08 05:21:00;;;;;;;22.80;11.10;;;;;;;-2.15;70.92;99747.34;108739;1252;94481;-68
2024/03/08 05:23:29;;;;;;;21.10;10.60;;;;;;;-2.18;71.07;99746.66;106883;1256;96535;-71
2024/03/08 05:25:57;;;;;;;21.40;9.90;;;;;;;-2.19;71.04;99742.16;107843;1253;110281;-68
2024/03/08 05:28:25;;;;;;;20.90;10.30;;;;;;;-2.16;71.33;99748.56;108694;1253;95387;-68
2024/03/08 05:30:56;;;;;;;20.90;10.60;;;;;;;-2.10;71.39;99747.64;108695;1253;107788;-69
2024/03/08 05:33:24;;;;;;;21.80;9.70;;;;;;;-2.03;71.27;99748.77;108729;1253;94676;-69
2024/03/08 05:35:52;;;;;;;23.60;10.50;;;;;;;-2.05;70.99;99747.94;108733;1252;94955;-70
2024/03/08 05:38:21;;;;;;;27.70;12.00;;;;;;;-2.06;71.07;99752.11;108020;1253;109908;-73
2024/03/08 05:40:49;;;;;;;19.60;11.20;;;;;;;-2.05;70.99;99755.41;105472;1254;96677;-70
2024/03/08 05:43:19;;;;;;;27.20;12.30;;;;;;;-2.04;70.87;99757.13;105212;1257;107782;-71
2024/03/08 05:45:47;;;;;;;21.30;10.40;;;;;;;-2.04;71.41;99763.92;105361;1253;96568;-69
2024/03/08 05:48:15;;;;;;;26.60;11.60;;;;;;;-2.02;70.92;99764.95;105630;1253;96490;-73
2024/03/08 05:50:44;;;;;;;24.20;11.50;;;;;;;-2.04;70.93;99764.45;105589;1253;109468;-69
2024/03/08 05:53:11;;;;;;;21.20;11.10;;;;;;;-2.02;71.23;99765.63;105472;1256;97966;-71
2024/03/08 05:55:40;;;;;;;24.40;11.60;;;;;;;-1.99;71.30;99763.34;105190;1258;107040;-71
2024/03/08 05:58:11;;;;;;;24.60;12.40;;;;;;;-1.94;71.13;99765.55;105738;1256;96580;-70
2024/03/08 06:00:39;;;;;;;27.60;12.50;;;;;;;-1.92;71.54;99764.32;105734;1253;96622;-73
2024/03/08 06:03:07;;;;;;;24.20;11.60;;;;;;;-1.88;71.24;99765.67;105574;1253;109895;-71
2024/03/08 06:05:36;;;;;;;25.70;12.50;;;;;;;-1.88;71.40;99765.84;105580;1253;96528;-70
2024/03/08 06:08:04;;;;;;;26.80;12.80;;;;;;;-1.86;71.49;99765.30;106091;1256;107719;-73
2024/03/08 06:10:32;;;;;;;23.60;10.60;;;;;;;-1.80;71.54;99765.56;105569;1257;96590;-70
2024/03/08 06:13:01;;;;;;;30.20;14.20;;;;;;;-1.75;71.44;99768.48;105526;1257;96590;-70
2024/03/08 06:15:32;;;;;;;28.10;13.20;;;;;;;-1.75;71.22;99761.00;105732;1256;109950;-76
2024/03/08 06:18:02;;;;;;;31.00;13.60;;;;;;;-1.73;71.71;99762.89;105616;1254;97506;-72
2024/03/08 06:20:30;;;;;;;24.30;11.30;;;;;;;-1.70;71.67;99763.20;105670;1253;107696;-72
2024/03/08 06:22:59;;;;;;;24.90;11.50;;;;;;;-1.68;71.69;99762.31;105538;1257;96504;-73
2024/03/08 06:25:27;;;;;;;27.30;11.70;;;;;;;-1.64;71.91;99766.27;105659;1257;96593;-74
2024/03/08 06:27:55;;;;;;;28.00;12.60;;;;;;;-1.60;71.76;99768.83;105274;1252;109860;-69
2024/03/08 06:30:23;;;;;;;25.70;11.60;;;;;;;-1.58;71.83;99766.89;105692;1256;96602;-75
2024/03/08 06:32:54;;;;;;;24.90;10.70;;;;;;;-1.57;71.89;99766.70;105517;1254;107591;-75
2024/03/08 06:35:22;;;;;;;27.40;12.90;;;;;;;-1.51;71.71;99769.94;105454;1256;96707;-72
2024/03/08 06:37:50;;;;;;;25.30;12.70;;;;;;;-1.44;71.92;99765.88;105558;1254;96677;-73
2024/03/08 06:40:18;;;;;;;32.90;14.10;;;;;;;-1.41;71.91;99763.90;105585;1253;109856;-71
2024/03/08 06:42:46;;;;;;;28.20;13.60;;;;;;;-1.42;71.72;99764.27;105681;1256;97790;-72
2024/03/08 06:45:19;;;;;;;30.10;14.10;;;;;;;-1.43;71.79;99765.34;105366;1257;107634;-72
2024/03/08 06:47:47;;;;;;;29.90;14.50;;;;;;;-1.38;72.05;99765.09;105297;1257;96593;-72
2024/03/08 06:50:16;;;;;;;30.40;13.70;;;;;;;-1.33;71.99;99763.98;105777;1258;96620;-73
2024/03/08 06:52:44;;;;;;;27.20;12.00;;;;;;;-1.30;71.91;99759.44;105786;1253;109939;-72
2024/03/08 06:55:12;;;;;;;28.10;12.80;;;;;;;-1.28;72.11;99761.31;105508;1254;97305;-70
2024/03/08 06:57:40;;;;;;;29.10;13.50;;;;;;;-1.25;71.82;99760.58;105382;1256;107648;-71
2024/03/08 07:00:11;;;;;;;22.50;12.10;;;;;;;-1.25;72.08;99756.75;105447;1256;96586;-71
2024/03/08 07:02:45;;;;;;;21.70;11.70;;;;;;;-1.21;72.02;99757.90;105635;1256;96575;-76
2024/03/08 07:05:14;;;;;;;22.30;12.10;;;;;;;-1.16;71.98;99762.72;105665;1253;108052;-74
2024/03/08 07:07:41;;;;;;;23.10;12.10;;;;;;;-1.14;72.07;99762.86;105664;1253;96527;-74
2024/03/08 07:10:14;;;;;;;26.20;12.30;;;;;;;-1.13;72.02;99761.80;105548;1253;107658;-76
2024/03/08 07:12:44;;;;;;;29.70;13.70;;;;;;;-1.10;71.95;99763.85;105457;1254;97898;-74
2024/03/08 07:15:15;;;;;;;29.60;12.80;;;;;;;-1.09;72.13;99762.97;105584;1253;96590;-69
2024/03/08 07:17:44;;;;;;;23.50;11.70;;;;;;;-1.04;72.19;99761.51;105603;1253;109312;-74
2024/03/08 07:20:18;;;;;;;24.60;11.90;;;;;;;-0.99;72.35;99764.22;105603;1254;96498;-72
2024/03/08 07:22:53;;;;;;;31.20;13.60;;;;;;;-0.93;72.25;99765.71;105480;1259;107448;-74
2024/03/08 07:25:21;;;;;;;33.80;13.60;;;;;;;-0.88;72.14;99762.52;105381;1256;96667;-73
2024/03/08 07:27:52;;;;;;;37.90;19.30;;;;;;;-0.85;72.26;99759.68;105632;1256;96523;-71
2024/03/08 07:33:14;;;;;;;28.40;12.60;;;;;;;-0.72;72.42;99756.34;105303;1254;97811;-72
2024/03/08 07:35:44;;;;;;;35.20;16.00;;;;;;;-0.62;72.42;99752.34;105472;1253;107408;-75
2024/03/08 07:38:16;;;;;;;29.80;13.40;;;;;;;-0.56;72.54;99750.17;105464;1253;96597;-74
2024/03/08 07:40:44;;;;;;;31.80;15.60;;;;;;;-0.52;72.34;99756.04;105391;1253;96578;-74
2024/03/08 07:43:13;;;;;;;31.60;14.00;;;;;;;-0.50;72.58;99752.16;105529;1256;109951;-73
2024/03/08 07:45:41;;;;;;;30.20;14.30;;;;;;;-0.46;72.57;99751.92;105778;1256;96603;-75
2024/03/08 07:48:09;;;;;;;27.80;14.20;;;;;;;-0.41;72.58;99755.52;105487;1257;106481;-73
2024/03/08 07:50:39;;;;;;;31.30;14.40;;;;;;;-0.33;72.66;99759.20;105346;1254;97795;-74
2024/03/08 07:53:08;;;;;;;28.80;13.90;;;;;;;-0.24;72.79;99755.04;105421;1254;96597;-74
2024/03/08 07:55:36;;;;;;;28.40;13.60;;;;;;;-0.14;72.70;99750.52;105463;1252;109913;-75
2024/03/08 07:58:10;;;;;;;27.10;12.50;;;;;;;-0.08;72.71;99750.05;105183;1267;96593;-77
2024/03/08 08:00:39;;;;;;;34.50;15.40;;;;;;;0.00;72.88;99749.91;105696;1256;107383;-75
2024/03/08 08:03:08;;;;;;;35.40;15.90;;;;;;;0.08;72.69;99746.45;105869;1253;96576;-75
2024/03/08 08:05:38;;;;;;;30.40;14.60;;;;;;;0.12;72.64;99749.52;105558;1254;96609;-74
2024/03/08 08:08:10;;;;;;;29.40;13.60;;;;;;;0.19;72.83;99752.52;105390;1253;109581;-74
2024/03/08 08:10:39;;;;;;;34.80;16.30;;;;;;;0.28;72.92;99752.86;105379;1270;96607;-74
2024/03/08 08:13:07;;;;;;;29.90;15.40;;;;;;;0.29;72.58;99747.11;105530;1254;107246;-71
2024/03/08 08:15:35;;;;;;;31.40;12.80;;;;;;;0.35;72.89;99746.29;105638;1254;97912;-71
2024/03/08 08:18:05;;;;;;;30.80;15.50;;;;;;;0.43;73.00;99745.77;105281;1254;97940;-73
2024/03/08 08:20:34;;;;;;;36.20;16.00;;;;;;;0.52;72.87;99743.85;105299;1257;109652;-74
2024/03/08 08:23:03;;;;;;;35.90;15.90;;;;;;;0.55;72.77;99746.23;105571;1256;96507;-72
2024/03/08 08:25:31;;;;;;;25.60;12.70;;;;;;;0.59;72.86;99741.96;105619;1253;107683;-74
2024/03/08 08:27:59;;;;;;;32.60;14.40;;;;;;;0.66;72.96;99737.27;105569;1257;96686;-71
2024/03/08 08:30:27;;;;;;;29.30;13.80;;;;;;;0.78;72.94;99744.71;105758;1256;96628;-72
2024/03/08 08:32:58;;;;;;;31.50;13.80;;;;;;;0.86;72.98;99741.73;105455;1256;109832;-75
2024/03/08 08:35:28;;;;;;;32.40;15.20;;;;;;;0.95;73.02;99739.61;105394;1257;97646;-75
2024/03/08 08:37:58;;;;;;;30.50;14.10;;;;;;;1.04;73.04;99740.28;105597;1257;107197;-72
2024/03/08 08:40:27;;;;;;;31.10;13.40;;;;;;;1.13;73.03;99739.58;105532;1253;97893;-72
2024/03/08 08:42:58;;;;;;;32.80;16.00;;;;;;;1.17;73.02;99738.08;105696;1256;96568;-73
2024/03/08 08:45:26;;;;;;;33.80;16.10;;;;;;;1.23;72.91;99738.97;105465;1254;109746;-74
2024/03/08 08:47:54;;;;;;;31.10;14.10;;;;;;;1.28;72.97;99737.13;105423;1256;97940;-72
2024/03/08 08:50:23;;;;;;;31.20;14.10;;;;;;;1.32;73.04;99736.48;105439;1257;107667;-74
2024/03/08 08:52:55;;;;;;;25.00;13.50;;;;;;;1.41;72.94;99733.67;105532;1253;96592;-74
2024/03/08 08:55:25;;;;;;;28.10;14.60;;;;;;;1.52;73.10;99731.64;105278;1253;97544;-74
2024/03/08 08:57:54;;;;;;;29.10;13.90;;;;;;;1.61;73.08;99726.87;105544;1256;109959;-74
2024/03/08 09:00:26;;;;;;;26.90;13.30;;;;;;;1.66;72.92;99730.77;105315;1256;97521;-74
2024/03/08 09:06:10;;;;;;;22.80;12.30;;;;;;;1.75;73.11;99727.40;105443;1257;96715;-69
2024/03/08 09:08:41;;;;;;;30.90;14.00;;;;;;;1.78;72.95;99727.16;105233;1253;96508;-73
2024/03/08 09:11:10;;;;;;;23.10;11.70;;;;;;;1.84;72.72;99721.23;105377;1256;109438;-70
2024/03/08 09:13:38;;;;;;;25.90;12.10;;;;;;;1.93;73.21;99722.21;105494;1256;96587;-73
2024/03/08 09:16:06;;;;;;;24.60;11.90;;;;;;;2.02;72.93;99724.61;105487;1254;107694;-72
2024/03/08 09:18:35;;;;;;;28.80;13.40;;;;;;;2.08;72.69;99721.62;105583;1256;96695;-74
2024/03/08 09:21:04;;;;;;;27.30;13.10;;;;;;;2.13;72.99;99718.71;105498;1254;96508;-71
2024/03/08 09:23:32;;;;;;;28.60;14.70;;;;;;;2.17;73.07;99717.71;105568;1257;109052;-72
2024/03/08 09:26:01;;;;;;;25.90;12.60;;;;;;;2.21;73.15;99720.04;105550;1256;96586;-69
2024/03/08 09:28:30;;;;;;;20.90;10.40;;;;;;;2.27;73.00;99714.29;105400;1258;108091;-70
2024/03/08 09:30:58;;;;;;;26.10;13.10;;;;;;;2.31;72.53;99711.55;105613;1256;97797;-69
2024/03/08 09:33:28;;;;;;;22.20;11.90;;;;;;;2.34;72.78;99713.58;105538;1254;96595;-70
2024/03/08 09:35:59;;;;;;;26.50;12.40;;;;;;;2.34;72.49;99708.47;105594;1256;109974;-69
2024/03/08 09:38:30;;;;;;;20.40;10.70;;;;;;;2.42;72.92;99707.75;105489;1257;98564;-70
2024/03/08 09:40:58;;;;;;;22.50;11.20;;;;;;;2.49;72.68;99705.80;105467;1259;107086;-70
2024/03/08 09:43:30;;;;;;;26.00;13.60;;;;;;;2.55;72.48;99706.83;105512;1257;96672;-72
2024/03/08 09:45:59;;;;;;;24.20;11.80;;;;;;;2.59;72.68;99705.67;105495;1256;96644;-71
2024/03/08 09:48:26;;;;;;;28.80;12.70;;;;;;;2.59;72.49;99706.73;105516;1253;109923;-71
2024/03/08 09:50:56;;;;;;;25.70;13.70;;;;;;;2.55;72.36;99707.38;105466;1256;100101;-71
2024/03/08 09:53:24;;;;;;;27.40;13.90;;;;;;;2.56;72.38;99709.45;105452;1254;106307;-71
2024/03/08 09:55:52;;;;;;;27.80;12.90;;;;;;;2.58;72.40;99707.98;105398;1256;96584;-70
2024/03/08 10:01:04;;;;;;;24.40;12.80;;;;;;;2.72;72.64;99707.56;105325;1254;108572;-74
2024/03/08 10:03:33;;;;;;;26.80;14.00;;;;;;;2.81;72.27;99709.05;105347;1259;96605;-74
2024/03/08 10:06:01;;;;;;;28.80;13.10;;;;;;;2.81;72.38;99706.60;105395;1252;107755;-75
2024/03/08 10:08:29;;;;;;;26.80;13.30;;;;;;;2.83;72.52;99701.98;105493;1256;96596;-76
2024/03/08 10:11:00;;;;;;;25.90;13.70;;;;;;;2.91;72.26;99702.09;105373;1256;97515;-75
2024/03/08 10:13:30;;;;;;;28.60;13.50;;;;;;;2.96;72.39;99704.02;105465;1257;109891;-74
2024/03/08 10:16:00;;;;;;;27.00;13.50;;;;;;;3.00;72.15;99701.29;105242;1256;97838;-76
2024/03/08 10:18:28;;;;;;;22.90;12.20;;;;;;;3.05;72.27;99698.48;105426;1266;107749;-70
2024/03/08 10:21:07;;;;;;;26.20;13.20;;;;;;;3.17;72.52;99690.59;105533;1254;96598;-70
2024/03/08 10:23:36;;;;;;;23.00;12.30;;;;;;;3.35;72.44;99698.77;105420;1259;96616;-72
2024/03/08 10:26:16;;;;;;;23.40;11.80;;;;;;;3.48;72.28;99700.82;105428;1256;110346;-71
2024/03/08 10:28:45;;;;;;;26.20;13.70;;;;;;;3.47;72.03;99696.47;105457;1252;96465;-76
2024/03/08 10:31:19;;;;;;;23.40;11.60;;;;;;;3.50;72.13;99696.02;105414;1254;107584;-74
2024/03/08 10:33:47;;;;;;;24.50;12.30;;;;;;;3.56;72.09;99694.92;105458;1256;97427;-72
2024/03/08 10:36:15;;;;;;;28.40;12.20;;;;;;;3.60;71.98;99687.77;105629;1256;96588;-74
2024/03/08 10:38:46;;;;;;;22.30;11.80;;;;;;;3.63;71.98;99691.00;105324;1266;109937;-73
2024/03/08 10:41:16;;;;;;;21.60;11.70;;;;;;;3.64;71.90;99692.71;105470;1256;96687;-74
2024/03/08 10:44:19;;;;;;;21.00;11.40;;;;;;;3.62;71.69;99690.15;105467;1254;108509;-73
2024/03/08 10:47:05;;;;;;;27.30;13.80;;;;;;;3.63;71.74;99690.14;105156;1256;97522;-76
2024/03/08 10:49:39;;;;;;;24.60;12.80;;;;;;;3.66;71.84;99683.69;105246;1254;96587;-74
2024/03/08 10:52:09;;;;;;;25.40;12.00;;;;;;;3.66;71.73;99680.90;105689;1253;109744;-76
2024/03/08 10:54:40;;;;;;;23.90;11.90;;;;;;;3.68;71.61;99680.15;105450;1253;97910;-75
2024/03/08 10:57:15;;;;;;;25.80;11.60;;;;;;;3.72;71.89;99676.98;105432;1257;107725;-77
2024/03/08 10:59:43;;;;;;;20.80;10.90;;;;;;;3.75;71.61;99673.24;105272;1257;96719;-73
2024/03/08 11:03:43;;;;;;;;;;;;;;;3.72;71.30;99674.89;102425;1293;635932;-74
2024/03/08 11:06:37;;;;;;;23.60;12.00;;;;;;;3.60;71.29;99673.91;104911;1278;94257;-72
2024/03/08 11:09:27;;;;;;;22.80;11.20;;;;;;;3.48;71.28;99666.25;104691;1270;94310;-74
2024/03/08 11:12:37;;;;;;;23.90;11.70;;;;;;;3.46;71.11;99659.67;104779;1269;106479;-68
2024/03/08 11:15:13;;;;;;;23.20;12.50;;;;;;;3.48;71.00;99657.52;105151;1263;94425;-69
2024/03/08 11:17:47;;;;;;;21.50;11.70;;;;;;;3.48;71.32;99657.15;98598;1271;9217598;-69
2024/03/08 11:20:20;;;;;;;19.70;9.90;;;;;;;3.52;71.04;99657.72;105556;1257;96153;-71
2024/03/08 11:23:03;;;;;;;25.30;12.30;;;;;;;3.46;71.12;99650.36;105593;1257;106897;-76
2024/03/08 11:25:44;;;;;;;23.50;11.40;;;;;;;3.46;71.23;99651.45;105574;1258;95472;-77
2024/03/08 11:28:20;;;;;;;25.30;12.70;;;;;;;3.41;70.93;99645.81;105754;1257;107617;-72
2024/03/08 11:30:58;;;;;;;24.70;12.40;;;;;;;3.34;70.84;99646.55;105658;1257;96183;-70
2024/03/08 11:33:28;;;;;;;26.20;12.60;;;;;;;3.31;70.65;99642.63;105745;1253;95243;-70
2024/03/08 11:36:16;;;;;;;23.30;12.70;;;;;;;3.36;70.79;99640.54;105997;1257;108532;-70